ベロオリゾンテ の空港の天気 - METARとTAF

タンクレド・ネヴェス国際空港 ( SBCF / CNF ) - ブラジル ミナスジェライス州ベロオリゾンテ
飛行場実況気象(Metar)
観測時間08/04 19:00 BRT (08/04 22:00 UTC)
風向・風速東 6m/s
視程10km以上
天気現象
なし
気温19℃
湿度49%
気圧1028hPa
METARSBCF 042200Z 09012KT CAVOK 19/08 Q1028
過去の天気等 Google飛行場航空写真 Wunderground天気予報

過去48時間のMETAR

飛行場予報(TAF)
発表時間: 8/04 12:00 BRT (8/04 15:00 UTC)
予報対象時間: 4日15時 BRT ~ 5日15時 BRT
風向・風速東 4m/s
視程10km以上
少しの雲 雲底高度 1010m
TAF SBCF 041500Z 0418/0518 09007KT 9999 FEW033 TN11/0506Z TX24/0518Z RMK PCO